Main page
METAR-TAF:

METAR-TAF

Airports :

Albert – Picardie Airport

Albert, France

latitude: 49-58-21N, longitude: 002-41-29E, elevation: 111 m

Current weather observation

The report was made 40 minutes ago, at 19:30 UTC
Wind 6 kt from the South
Temperature 16°C
Humidity 77%
Pressure 1011 hPa
Visibility 10 km or more
no clouds below 1500 m and no cumulonimbus

METAR: LFAQ 251930Z AUTO 18006KT CAVOK 16/12 Q1011

Time: 22:10 (20:10 UTC)

Forecast

The report was made 6 hours and 10 minutes ago, at 14:00 UTC
Forecast valid from 25 at 15 UTC to 25 at 24 UTC
Wind 6 kt from the South/Southwest
Visibility 10 km or more
Scattered clouds at a height of 3500 ft
Broken clouds at a height of 5000 ft
Temporary
from 25 at 15 UTC to 25 at 18 UTC
Visibility: 3000 m
Scattered clouds at a height of 1300 ft
Broken clouds at a height of 2500 ft, Towering cumulus.
rain

TAF: LFAQ 251400Z 2515/2524 20006KT 9999 SCT035 BKN050 TEMPO 2515/2518 3000 RA SCT013 BKN025TCU

Weather observations and forecasts of more than 4000 airports (METAR and TAF reports).

The available stations are represented by yellow and red dots on the map.

Hover mouse over dot to see the name of the station.

Then click to see weather observations and forecasts.

To change the map : click on the green buttons with a black cross to zoom in, on the green button with a dash to zoom out, or on the green arrows for adjacent maps.


METAR-TAF: